createdAt,value
2017-11-14T00:01:58.944Z,1.60
2017-11-14T00:04:27.198Z,1.50
2017-11-14T00:06:54.646Z,1.50
2017-11-14T00:09:22.059Z,1.50
2017-11-14T00:11:49.483Z,1.50
2017-11-14T00:14:16.898Z,1.50
2017-11-14T00:16:45.120Z,1.50
2017-11-14T00:19:12.535Z,1.50
2017-11-14T00:21:40.726Z,1.40
2017-11-14T00:24:08.252Z,1.40
2017-11-14T00:26:35.674Z,1.40
2017-11-14T00:29:03.136Z,1.40
2017-11-14T00:31:30.563Z,1.40
2017-11-14T00:33:58.751Z,1.30
2017-11-14T00:36:26.234Z,1.30
2017-11-14T00:38:53.703Z,1.30
2017-11-14T00:41:21.134Z,1.30
2017-11-14T00:43:48.560Z,1.30
2017-11-14T00:46:16.079Z,1.30
2017-11-14T00:48:43.548Z,1.30
2017-11-14T00:51:10.990Z,1.30
2017-11-14T00:53:38.559Z,1.40
2017-11-14T00:56:05.980Z,1.40
2017-11-14T00:58:33.399Z,1.40
2017-11-14T01:01:00.822Z,1.30
2017-11-14T01:03:28.319Z,1.40
2017-11-14T01:05:55.763Z,1.40
2017-11-14T01:08:23.231Z,1.40
2017-11-14T01:10:50.683Z,1.50
2017-11-14T01:13:18.155Z,1.50
2017-11-14T01:15:45.580Z,1.60
2017-11-14T01:18:13.762Z,1.70
2017-11-14T01:20:41.968Z,1.80
2017-11-14T01:23:09.378Z,1.70
2017-11-14T01:25:36.806Z,1.80
2017-11-14T01:28:04.226Z,1.80
2017-11-14T01:30:31.646Z,1.90
2017-11-14T01:32:59.060Z,1.90
2017-11-14T01:35:26.482Z,1.90
2017-11-14T01:37:54.710Z,1.90
2017-11-14T01:40:22.139Z,1.90
2017-11-14T01:42:50.330Z,1.80
2017-11-14T01:45:17.767Z,1.80
2017-11-14T01:47:45.269Z,1.80
2017-11-14T01:50:12.734Z,1.80
2017-11-14T01:52:40.158Z,1.70
2017-11-14T01:55:08.378Z,1.60
2017-11-14T01:57:35.834Z,1.60
2017-11-14T02:00:03.389Z,1.50
2017-11-14T02:02:30.848Z,1.50
2017-11-14T02:04:58.246Z,1.50
2017-11-14T02:07:25.674Z,1.40
2017-11-14T02:09:53.090Z,1.40
2017-11-14T02:12:21.283Z,1.30
2017-11-14T02:14:49.490Z,1.30
2017-11-14T02:17:16.955Z,1.20
2017-11-14T02:19:44.374Z,1.20
2017-11-14T02:22:12.567Z,1.20
2017-11-14T02:24:40.067Z,1.10
2017-11-14T02:27:09.950Z,1.20
2017-11-14T02:29:37.366Z,1.20
2017-11-14T02:32:04.787Z,1.30
2017-11-14T02:34:32.207Z,1.30
2017-11-14T02:37:00.433Z,1.20
2017-11-14T02:39:27.891Z,1.20
2017-11-14T02:41:55.350Z,1.20
2017-11-14T02:44:22.773Z,1.20
2017-11-14T02:46:50.990Z,1.20
2017-11-14T02:49:18.407Z,1.20
2017-11-14T02:51:46.631Z,1.30
2017-11-14T02:54:14.052Z,1.30
2017-11-14T02:56:42.276Z,1.40
2017-11-14T02:59:09.742Z,1.30
2017-11-14T03:01:37.159Z,1.40
2017-11-14T03:04:05.369Z,1.50
2017-11-14T03:06:32.794Z,1.50
2017-11-14T03:09:01.006Z,1.60
2017-11-14T03:11:28.426Z,1.50
2017-11-14T03:13:56.609Z,1.60
2017-11-14T03:16:24.920Z,1.70
2017-11-14T03:18:52.390Z,1.70
2017-11-14T03:21:19.821Z,1.70
2017-11-14T03:23:48.000Z,1.70
2017-11-14T03:26:15.439Z,1.70
2017-11-14T03:28:42.955Z,1.70
2017-11-14T03:31:10.416Z,1.80
2017-11-14T03:33:37.830Z,1.80
2017-11-14T03:36:06.014Z,1.80
2017-11-14T03:38:34.232Z,1.80
2017-11-14T03:41:01.643Z,1.80
2017-11-14T03:43:29.831Z,1.80
2017-11-14T03:45:58.019Z,1.80
2017-11-14T03:48:25.438Z,1.80
2017-11-14T03:50:52.859Z,1.80
2017-11-14T03:53:20.276Z,1.80
2017-11-14T03:55:47.692Z,1.80
2017-11-14T03:58:15.239Z,1.70
2017-11-14T04:00:42.712Z,1.70
2017-11-14T04:03:10.141Z,1.60
2017-11-14T04:05:38.314Z,1.50
2017-11-14T04:08:06.507Z,1.50
2017-11-14T04:10:33.923Z,1.50
2017-11-14T04:13:01.346Z,1.40
2017-11-14T04:15:28.775Z,1.30
2017-11-14T04:17:56.982Z,1.20
2017-11-14T04:20:24.399Z,1.20
2017-11-14T04:22:52.591Z,1.10
2017-11-14T04:25:20.803Z,1.00
2017-11-14T04:27:48.262Z,1.00
2017-11-14T04:30:15.691Z,1.00
2017-11-14T04:32:43.898Z,0.90
2017-11-14T04:35:11.314Z,0.90
2017-11-14T04:37:39.542Z,0.80
2017-11-14T04:40:06.969Z,0.80
2017-11-14T04:42:35.192Z,0.70
2017-11-14T04:45:02.591Z,0.70
2017-11-14T04:47:30.798Z,0.70
2017-11-14T04:49:58.959Z,0.70
2017-11-14T04:52:27.174Z,0.60
2017-11-14T04:54:54.587Z,0.60
2017-11-14T04:57:22.819Z,0.60
2017-11-14T04:59:50.271Z,0.60
2017-11-14T05:02:17.694Z,0.60
2017-11-14T05:04:45.874Z,0.60
2017-11-14T05:07:14.087Z,0.60
2017-11-14T05:09:41.510Z,0.60
2017-11-14T05:12:09.690Z,0.50
2017-11-14T05:14:37.903Z,0.60
2017-11-14T05:17:05.320Z,0.50
2017-11-14T05:19:33.509Z,0.60
2017-11-14T05:22:01.718Z,0.60
2017-11-14T05:24:29.150Z,0.60
2017-11-14T05:26:57.351Z,0.60
2017-11-14T05:29:24.762Z,0.60
2017-11-14T05:31:52.280Z,0.60
2017-11-14T05:34:19.702Z,0.60
2017-11-14T05:36:47.886Z,0.60
2017-11-14T05:39:16.076Z,0.60
2017-11-14T05:41:43.487Z,0.60
2017-11-14T05:44:10.933Z,0.70
2017-11-14T05:46:38.338Z,0.70
2017-11-14T05:49:06.562Z,0.80
2017-11-14T05:51:33.978Z,0.80
2017-11-14T05:54:02.184Z,1.10
2017-11-14T05:56:29.671Z,1.10
2017-11-14T05:58:57.098Z,1.20
2017-11-14T06:01:24.514Z,1.30
2017-11-14T06:03:52.037Z,1.40
2017-11-14T06:06:19.505Z,1.50
2017-11-14T06:08:46.963Z,1.70
2017-11-14T06:11:14.395Z,1.80
2017-11-14T06:13:42.603Z,2.10
2017-11-14T06:16:10.056Z,2.10
2017-11-14T06:18:37.526Z,2.30
2017-11-14T06:21:04.947Z,2.40
2017-11-14T06:23:33.163Z,2.60
2017-11-14T06:26:00.591Z,2.60
2017-11-14T06:28:28.778Z,2.70
2017-11-14T06:30:56.266Z,2.70
2017-11-14T06:33:23.740Z,2.80
2017-11-14T06:35:51.142Z,2.80
2017-11-14T06:38:19.382Z,2.90
2017-11-14T06:40:46.802Z,2.90
2017-11-14T06:43:14.242Z,3.00
2017-11-14T06:45:41.748Z,3.00
2017-11-14T06:48:09.216Z,3.10
2017-11-14T06:50:36.679Z,3.10
2017-11-14T06:53:04.134Z,3.20
2017-11-14T06:55:31.560Z,3.30
2017-11-14T06:57:59.775Z,3.30
2017-11-14T07:00:27.202Z,3.30
2017-11-14T07:02:55.415Z,3.40
2017-11-14T07:05:22.883Z,3.40
2017-11-14T07:07:50.326Z,3.40
2017-11-14T07:10:17.896Z,3.40
2017-11-14T07:12:45.360Z,3.50
2017-11-14T07:15:12.782Z,3.50
2017-11-14T07:17:40.962Z,3.60
2017-11-14T07:20:09.180Z,3.60
2017-11-14T07:22:36.633Z,3.60
2017-11-14T07:25:04.063Z,3.70
2017-11-14T07:27:32.264Z,3.90
2017-11-14T07:29:59.672Z,3.90
2017-11-14T07:32:27.086Z,4.00
2017-11-14T07:34:54.511Z,4.10
2017-11-14T07:37:22.695Z,4.20
2017-11-14T07:39:50.890Z,4.40
2017-11-14T07:42:19.074Z,4.50
2017-11-14T07:44:46.499Z,4.50
2017-11-14T07:47:14.022Z,4.50
2017-11-14T07:49:41.446Z,4.50
2017-11-14T07:52:08.931Z,4.60
2017-11-14T07:54:36.366Z,4.60
2017-11-14T07:57:04.579Z,4.70
2017-11-14T07:59:32.026Z,4.70
2017-11-14T08:01:59.431Z,4.80
2017-11-14T08:04:26.863Z,4.90
2017-11-14T08:06:54.314Z,5.00
2017-11-14T08:09:21.738Z,5.10
2017-11-14T08:11:49.934Z,5.20
2017-11-14T08:14:17.533Z,5.20
2017-11-14T08:16:44.931Z,5.30
2017-11-14T08:19:13.170Z,5.50
2017-11-14T08:21:40.619Z,5.40
2017-11-14T08:24:08.093Z,5.50
2017-11-14T08:26:35.522Z,5.50
2017-11-14T08:29:02.998Z,5.60
2017-11-14T08:31:30.475Z,5.60
2017-11-14T08:33:57.927Z,5.60
2017-11-14T08:36:25.342Z,5.60
2017-11-14T08:38:53.567Z,5.60
2017-11-14T08:41:20.987Z,5.60
2017-11-14T08:43:49.180Z,5.60
2017-11-14T08:46:16.606Z,5.60
2017-11-14T08:48:44.123Z,5.70
2017-11-14T08:51:11.547Z,5.70
2017-11-14T08:53:39.730Z,5.80
2017-11-14T08:56:07.922Z,5.80
2017-11-14T08:58:35.426Z,5.80
2017-11-14T09:01:02.863Z,5.80
2017-11-14T09:03:30.340Z,5.90
2017-11-14T09:05:57.778Z,5.90
2017-11-14T09:08:25.184Z,5.90
2017-11-14T09:10:52.602Z,6.10
2017-11-14T09:13:20.019Z,6.20
2017-11-14T09:15:48.211Z,6.30
2017-11-14T09:18:16.427Z,6.40
2017-11-14T09:20:43.883Z,6.30
2017-11-14T09:23:11.299Z,6.50
2017-11-14T09:25:39.494Z,7.00
2017-11-14T09:28:06.991Z,7.00
2017-11-14T09:30:34.415Z,7.10
2017-11-14T09:33:02.616Z,7.30
2017-11-14T09:35:30.035Z,7.30
2017-11-14T09:37:58.263Z,7.30
2017-11-14T09:40:25.724Z,7.30
2017-11-14T09:42:53.183Z,7.40
2017-11-14T09:45:20.613Z,7.70
2017-11-14T09:47:48.797Z,8.40
2017-11-14T09:50:16.999Z,8.60
2017-11-14T09:52:44.464Z,8.50
2017-11-14T09:55:11.923Z,8.50
2017-11-14T09:57:39.387Z,8.20
2017-11-14T10:00:06.811Z,8.10
2017-11-14T10:02:35.024Z,8.00
2017-11-14T10:05:02.448Z,8.00
2017-11-14T10:07:30.635Z,7.90
2017-11-14T10:09:58.133Z,7.90
2017-11-14T10:12:25.587Z,8.00
2017-11-14T10:14:53.051Z,8.10
2017-11-14T10:17:20.506Z,8.40
2017-11-14T10:19:47.940Z,8.80
2017-11-14T10:22:16.138Z,9.40
2017-11-14T10:24:44.324Z,9.30
2017-11-14T10:27:11.743Z,9.30
2017-11-14T10:29:39.935Z,8.90
2017-11-14T10:32:07.351Z,8.90
2017-11-14T10:34:34.878Z,8.90
2017-11-14T10:37:02.275Z,8.90
2017-11-14T10:39:29.699Z,8.80
2017-11-14T10:41:57.206Z,8.80
2017-11-14T10:44:24.606Z,9.00
2017-11-14T10:46:52.057Z,9.00
2017-11-14T10:49:20.242Z,9.40
2017-11-14T10:51:48.426Z,9.20
2017-11-14T10:54:15.908Z,9.20
2017-11-14T10:56:43.331Z,8.90
2017-11-14T10:59:11.524Z,8.40
2017-11-14T11:01:38.942Z,8.40
2017-11-14T11:04:06.359Z,8.20
2017-11-14T11:06:33.798Z,8.20
2017-11-14T11:09:02.003Z,8.70
2017-11-14T11:11:29.426Z,8.70
2017-11-14T11:13:57.650Z,9.20
2017-11-14T11:16:34.974Z,9.20
2017-11-14T11:19:02.395Z,9.20
2017-11-14T11:21:29.868Z,9.40
2017-11-14T11:23:57.275Z,9.50
2017-11-14T11:26:25.467Z,9.30
2017-11-14T11:28:52.955Z,9.30
2017-11-14T11:31:20.378Z,9.40
2017-11-14T11:33:48.563Z,9.70
2017-11-14T11:36:16.060Z,9.70
2017-11-14T11:38:43.480Z,9.90
2017-11-14T11:41:11.671Z,10.20
2017-11-14T11:43:39.091Z,10.10
2017-11-14T11:46:06.619Z,10.30
2017-11-14T11:48:34.076Z,10.50
2017-11-14T11:51:01.501Z,10.70
2017-11-14T11:53:29.719Z,11.10
2017-11-14T11:55:57.175Z,11.10
2017-11-14T11:58:25.407Z,11.50
2017-11-14T12:00:53.640Z,11.80
2017-11-14T12:03:21.063Z,11.80
2017-11-14T12:05:49.267Z,12.40
2017-11-14T12:08:16.687Z,12.30
2017-11-14T12:10:44.883Z,12.80
2017-11-14T12:13:12.303Z,12.70
2017-11-14T12:15:39.732Z,12.50
2017-11-14T12:18:07.195Z,12.00
2017-11-14T12:20:34.626Z,11.60
2017-11-14T12:23:02.047Z,11.30
2017-11-14T12:25:29.478Z,11.00
2017-11-14T12:27:56.922Z,10.90
2017-11-14T12:30:24.400Z,10.70
2017-11-14T12:32:51.862Z,10.60
2017-11-14T12:35:19.325Z,10.80
2017-11-14T12:37:46.738Z,11.00
2017-11-14T12:40:14.939Z,11.20
2017-11-14T12:42:42.419Z,11.10
2017-11-14T12:45:09.887Z,11.10
2017-11-14T12:47:37.347Z,11.00
2017-11-14T12:50:04.767Z,10.80
2017-11-14T12:52:32.986Z,10.30
2017-11-14T12:55:00.407Z,10.30
2017-11-14T12:57:28.623Z,9.80
2017-11-14T12:59:56.094Z,9.80
2017-11-14T13:02:24.419Z,9.70
2017-11-14T13:04:52.641Z,9.60
2017-11-14T13:07:20.107Z,9.60
2017-11-14T13:09:47.535Z,9.60
2017-11-14T13:12:15.031Z,9.60
2017-11-14T13:14:42.458Z,9.60
2017-11-14T13:17:10.647Z,9.50
2017-11-14T13:19:38.063Z,9.40
2017-11-14T13:22:05.685Z,9.40
2017-11-14T13:24:33.108Z,9.40
2017-11-14T13:27:00.516Z,9.30
2017-11-14T13:29:27.937Z,9.30
2017-11-14T13:31:56.150Z,9.20
2017-11-14T13:34:23.619Z,9.20
2017-11-14T13:36:51.224Z,9.10
2017-11-14T13:39:18.738Z,9.10
2017-11-14T13:41:46.162Z,9.10
2017-11-14T13:44:14.347Z,9.00
2017-11-14T13:46:41.838Z,9.00
2017-11-14T13:49:09.254Z,9.00
2017-11-14T13:51:37.479Z,9.00
2017-11-14T13:54:04.895Z,9.00
2017-11-14T13:56:33.087Z,9.00
2017-11-14T13:59:01.267Z,9.00
2017-11-14T14:01:28.755Z,8.90
2017-11-14T14:03:56.218Z,9.00
2017-11-14T14:06:23.772Z,8.90
2017-11-14T14:08:51.325Z,8.90
2017-11-14T14:11:18.739Z,9.00
2017-11-14T14:13:46.167Z,9.10
2017-11-14T14:16:13.623Z,9.20
2017-11-14T14:18:41.197Z,9.20
2017-11-14T14:21:08.656Z,9.10
2017-11-14T14:23:36.215Z,9.00
2017-11-14T14:26:03.656Z,9.00
2017-11-14T14:28:31.071Z,9.10
2017-11-14T14:30:58.496Z,9.10
2017-11-14T14:33:25.923Z,9.10
2017-11-14T14:35:54.238Z,9.10
2017-11-14T14:38:21.678Z,9.10
2017-11-14T14:40:49.098Z,9.10
2017-11-14T14:43:16.729Z,9.00
2017-11-14T14:45:44.175Z,8.90
2017-11-14T14:48:11.650Z,8.90
2017-11-14T14:50:39.083Z,8.90
2017-11-14T14:53:06.586Z,9.00
2017-11-14T14:55:34.027Z,9.20
2017-11-14T14:58:01.452Z,9.20
2017-11-14T15:00:29.688Z,9.20
2017-11-14T15:02:57.114Z,9.20
2017-11-14T15:05:24.526Z,9.20
2017-11-14T15:07:57.315Z,9.10
2017-11-14T15:10:34.555Z,9.10
2017-11-14T15:16:15.664Z,9.00
2017-11-14T15:18:53.139Z,8.90
2017-11-14T15:21:27.427Z,8.90
2017-11-14T15:24:05.693Z,8.90
2017-11-14T15:26:33.534Z,8.90
2017-11-14T15:29:00.947Z,8.80
2017-11-14T15:31:29.130Z,8.80
2017-11-14T15:33:56.618Z,8.80
2017-11-14T15:36:25.783Z,8.70
2017-11-14T15:39:02.686Z,8.70
2017-11-14T15:41:35.580Z,8.70
2017-11-14T15:44:15.606Z,8.80
2017-11-14T15:46:52.004Z,8.70
2017-11-14T15:49:23.385Z,8.70
2017-11-14T15:51:50.910Z,8.70
2017-11-14T15:54:26.428Z,8.80
2017-11-14T15:57:00.491Z,8.70
2017-11-14T15:59:38.252Z,8.70
2017-11-14T16:02:14.750Z,8.80
2017-11-14T16:04:51.196Z,8.70
2017-11-14T16:07:27.564Z,8.70
2017-11-14T16:09:57.098Z,8.70
2017-11-14T16:12:31.337Z,8.70
2017-11-14T16:15:04.950Z,8.60
2017-11-14T16:17:42.619Z,8.70
2017-11-14T16:20:10.235Z,8.70
2017-11-14T16:22:37.717Z,8.70
2017-11-14T16:25:05.152Z,8.60
2017-11-14T16:27:32.648Z,8.70
2017-11-14T16:30:08.071Z,8.70
2017-11-14T16:32:36.191Z,8.70
2017-11-14T16:35:05.112Z,8.60
2017-11-14T16:37:33.340Z,8.70
2017-11-14T16:40:11.145Z,8.70
2017-11-14T16:42:40.676Z,8.70
2017-11-14T16:45:11.902Z,8.70
2017-11-14T16:47:39.560Z,8.70
2017-11-14T16:50:07.211Z,8.70
2017-11-14T16:52:37.932Z,8.70
2017-11-14T16:55:06.105Z,8.60
2017-11-14T16:57:34.715Z,8.60
2017-11-14T17:00:09.274Z,8.60
2017-11-14T17:02:38.026Z,8.60
2017-11-14T17:05:06.661Z,8.60
2017-11-14T17:07:35.088Z,8.60
2017-11-14T17:10:02.503Z,8.60
2017-11-14T17:12:43.009Z,8.60
2017-11-14T17:15:11.195Z,8.60
2017-11-14T17:17:39.107Z,8.70
2017-11-14T17:20:06.636Z,8.70
2017-11-14T17:22:34.415Z,8.70
2017-11-14T17:25:08.691Z,8.60
2017-11-14T17:27:36.587Z,8.60
2017-11-14T17:30:04.047Z,8.60
2017-11-14T17:32:31.600Z,8.60
2017-11-14T17:35:00.285Z,8.60
2017-11-14T17:37:27.859Z,8.60
2017-11-14T17:43:08.032Z,8.60
2017-11-14T17:45:35.465Z,8.70
2017-11-14T17:48:02.913Z,8.70
2017-11-14T17:50:31.100Z,8.70
2017-11-14T17:52:58.531Z,8.70
2017-11-14T17:55:34.865Z,8.70
2017-11-14T17:58:02.312Z,8.60
2017-11-14T18:00:30.636Z,8.60
2017-11-14T18:02:58.158Z,8.60
2017-11-14T18:05:25.589Z,8.60
2017-11-14T18:07:53.071Z,8.60
2017-11-14T18:10:20.496Z,8.50
2017-11-14T18:12:48.678Z,8.50
2017-11-14T18:15:16.181Z,8.50
2017-11-14T18:17:43.603Z,8.60
2017-11-14T18:20:11.101Z,8.60
2017-11-14T18:22:38.563Z,8.60
2017-11-14T18:25:05.973Z,8.50
2017-11-14T18:27:34.191Z,8.50
2017-11-14T18:30:01.630Z,8.50
2017-11-14T18:32:29.850Z,8.40
2017-11-14T18:34:57.451Z,8.40
2017-11-14T18:37:25.644Z,8.40
2017-11-14T18:39:53.889Z,8.40
2017-11-14T18:42:21.346Z,8.30
2017-11-14T18:44:48.775Z,8.40
2017-11-14T18:47:16.192Z,8.30
2017-11-14T18:49:44.427Z,8.30
2017-11-14T18:52:11.858Z,8.30
2017-11-14T18:54:39.348Z,8.40
2017-11-14T18:57:06.796Z,8.30
2017-11-14T18:59:34.226Z,8.30
2017-11-14T19:02:02.940Z,8.30
2017-11-14T19:04:31.101Z,8.30
2017-11-14T19:06:59.287Z,8.30
2017-11-14T19:09:26.782Z,8.30
2017-11-14T19:11:54.221Z,8.30
2017-11-14T19:14:21.654Z,8.40
2017-11-14T19:16:50.883Z,8.30
2017-11-14T19:19:18.387Z,8.30
2017-11-14T19:21:45.822Z,8.30
2017-11-14T19:24:13.280Z,8.40
2017-11-14T19:26:40.706Z,8.30
2017-11-14T19:29:08.931Z,8.40
2017-11-14T19:31:36.338Z,8.40
2017-11-14T19:34:04.547Z,8.30
2017-11-14T19:36:32.038Z,8.30
2017-11-14T19:38:59.467Z,8.30
2017-11-14T19:41:27.063Z,8.30
2017-11-14T19:43:54.483Z,8.30
2017-11-14T19:46:21.982Z,8.30
2017-11-14T19:48:50.247Z,8.30
2017-11-14T19:51:17.687Z,8.30
2017-11-14T19:53:45.238Z,8.30
2017-11-14T19:56:12.655Z,8.30
2017-11-14T19:58:40.079Z,8.30
2017-11-14T20:01:07.555Z,8.30
2017-11-14T20:03:34.979Z,8.20
2017-11-14T20:06:03.162Z,8.30
2017-11-14T20:08:30.662Z,8.30
2017-11-14T20:10:58.070Z,8.30
2017-11-14T20:13:26.328Z,8.30
2017-11-14T20:15:54.565Z,8.30
2017-11-14T20:18:22.111Z,8.30
2017-11-14T20:20:49.526Z,8.30
2017-11-14T20:23:16.960Z,8.30
2017-11-14T20:25:44.426Z,8.30
2017-11-14T20:28:11.875Z,8.40
2017-11-14T20:30:39.298Z,8.40
2017-11-14T20:33:07.498Z,8.30
2017-11-14T20:35:34.954Z,8.30
2017-11-14T20:38:02.375Z,8.30
2017-11-14T20:40:29.810Z,8.30
2017-11-14T20:42:57.302Z,8.30
2017-11-14T20:45:24.722Z,8.30
2017-11-14T20:47:52.151Z,8.30
2017-11-14T20:50:19.574Z,8.30
2017-11-14T20:52:47.007Z,8.30
2017-11-14T20:55:14.445Z,8.30
2017-11-14T20:57:41.862Z,8.30
2017-11-14T21:00:09.295Z,8.30
2017-11-14T21:02:36.715Z,8.30
2017-11-14T21:05:04.913Z,8.30
2017-11-14T21:07:32.329Z,8.20
2017-11-14T21:10:00.521Z,8.20
2017-11-14T21:12:28.698Z,8.20
2017-11-14T21:14:56.918Z,8.20
2017-11-14T21:17:24.352Z,8.20
2017-11-14T21:19:51.775Z,8.30
2017-11-14T21:22:19.319Z,8.30
2017-11-14T21:24:47.549Z,8.30
2017-11-14T21:27:15.767Z,8.20
2017-11-14T21:29:43.307Z,8.20
2017-11-14T21:32:10.854Z,8.20
2017-11-14T21:34:38.306Z,8.20
2017-11-14T21:37:06.499Z,8.30
2017-11-14T21:39:33.983Z,8.30
2017-11-14T21:42:01.450Z,8.20
2017-11-14T21:44:28.941Z,8.20
2017-11-14T21:46:56.382Z,8.20
2017-11-14T21:49:23.830Z,8.30
2017-11-14T21:51:53.025Z,8.30
2017-11-14T21:54:20.673Z,8.30
2017-11-14T21:56:48.686Z,8.30
2017-11-14T21:59:16.137Z,8.30
2017-11-14T22:01:43.551Z,8.30
2017-11-14T22:04:11.869Z,8.30
2017-11-14T22:06:42.216Z,8.20
2017-11-14T22:09:09.801Z,8.20
2017-11-14T22:11:38.142Z,8.20
2017-11-14T22:14:06.852Z,8.10
2017-11-14T22:16:34.415Z,8.20
2017-11-14T22:19:01.931Z,8.20
2017-11-14T22:21:29.430Z,8.20
2017-11-14T22:23:56.882Z,8.20
2017-11-14T22:26:24.316Z,8.30
2017-11-14T22:28:51.755Z,8.30
2017-11-14T22:31:19.183Z,8.30
2017-11-14T22:33:46.607Z,8.30
2017-11-14T22:36:14.030Z,8.30
2017-11-14T22:38:42.963Z,8.30
2017-11-14T22:41:10.416Z,8.30
2017-11-14T22:43:37.832Z,8.30
2017-11-14T22:46:05.262Z,8.30
2017-11-14T22:48:32.725Z,8.30
2017-11-14T22:51:00.183Z,8.30
2017-11-14T22:53:27.677Z,8.30
2017-11-14T22:55:55.120Z,8.30
2017-11-14T22:58:22.693Z,8.30
2017-11-14T23:00:50.163Z,8.30
2017-11-14T23:03:17.594Z,8.40
2017-11-14T23:05:45.054Z,8.40
2017-11-14T23:08:12.472Z,8.30
2017-11-14T23:10:40.775Z,8.30
2017-11-14T23:13:08.272Z,8.30
2017-11-14T23:15:35.752Z,8.30
2017-11-14T23:18:03.186Z,8.30
2017-11-14T23:20:30.606Z,8.20
2017-11-14T23:22:58.848Z,8.30
2017-11-14T23:25:27.107Z,8.30
2017-11-14T23:27:54.561Z,8.30
2017-11-14T23:30:21.987Z,8.30
2017-11-14T23:32:50.230Z,8.30
2017-11-14T23:35:17.664Z,8.30
2017-11-14T23:37:45.122Z,8.30
2017-11-14T23:40:12.543Z,8.20
2017-11-14T23:42:41.482Z,8.30
2017-11-14T23:45:08.920Z,8.30
2017-11-14T23:47:36.335Z,8.30
2017-11-14T23:50:03.772Z,8.40
2017-11-14T23:52:31.186Z,8.40
2017-11-14T23:54:59.379Z,8.40
2017-11-14T23:57:26.795Z,8.30
2017-11-14T23:59:54.242Z,8.40
